createdAt,value
2022-10-23T10:35:00.104Z,21760.00
2022-10-23T10:35:59.984Z,26688.00
2022-10-23T10:36:59.968Z,26208.00
2022-10-23T10:37:59.973Z,28352.00
2022-10-23T10:38:59.961Z,27520.00
2022-10-23T10:39:59.957Z,28064.00
2022-10-23T10:40:59.932Z,22880.00
2022-10-23T10:41:59.921Z,21376.00
2022-10-23T10:42:59.916Z,21504.00
2022-10-23T10:43:59.929Z,21664.00
2022-10-23T10:44:59.986Z,22880.00
2022-10-23T10:45:59.876Z,23232.00
2022-10-23T10:46:59.869Z,23488.00
2022-10-23T10:47:59.909Z,25312.00
2022-10-23T10:48:59.877Z,26240.00
2022-10-23T10:49:59.850Z,30848.00
2022-10-23T10:50:59.900Z,27904.00
2022-10-23T10:51:59.864Z,26272.00
2022-10-23T10:52:59.828Z,24512.00
2022-10-23T10:53:59.783Z,23264.00
2022-10-23T10:54:59.873Z,21632.00
2022-10-23T10:55:59.828Z,21184.00
2022-10-23T10:56:59.825Z,22048.00
2022-10-23T10:58:00.118Z,21088.00
2022-10-23T10:58:59.752Z,22912.00
2022-10-23T10:59:59.753Z,24544.00
2022-10-23T11:00:59.848Z,22656.00
2022-10-23T11:01:59.928Z,23520.00
2022-10-23T11:02:59.691Z,24512.00
2022-10-23T11:03:59.708Z,24832.00
2022-10-23T11:04:59.736Z,25504.00
2022-10-23T11:06:59.667Z,24992.00
2022-10-23T11:07:59.664Z,24864.00
2022-10-23T11:09:19.217Z,23936.00
2022-10-23T11:10:00.633Z,23424.00
2022-10-23T11:10:59.675Z,23488.00
2022-10-23T11:11:59.596Z,24160.00
2022-10-23T11:12:59.587Z,24640.00
2022-10-23T11:13:59.592Z,24480.00
2022-10-23T11:14:59.567Z,23808.00
2022-10-23T11:15:59.648Z,24064.00
2022-10-23T11:16:59.536Z,24096.00
2022-10-23T11:17:59.546Z,25120.00
2022-10-23T11:18:59.515Z,24704.00
2022-10-23T11:19:59.559Z,24864.00
2022-10-23T11:20:59.525Z,24544.00
2022-10-23T11:21:59.532Z,23712.00
2022-10-23T11:22:59.556Z,22432.00
2022-10-23T11:23:59.594Z,21824.00
2022-10-23T11:24:59.471Z,21504.00
2022-10-23T11:25:59.507Z,21376.00
2022-10-23T11:26:59.525Z,21472.00
2022-10-23T11:28:03.575Z,21792.00
2022-10-23T11:29:00.434Z,22272.00
2022-10-23T11:29:59.438Z,22720.00
2022-10-23T11:30:59.451Z,23040.00
2022-10-23T11:31:59.397Z,23104.00
2022-10-23T11:32:59.390Z,22880.00
2022-10-23T11:33:59.362Z,22464.00
2022-10-23T11:34:59.449Z,21824.00
2022-10-23T11:35:59.392Z,21088.00
2022-10-23T11:36:59.321Z,20384.00
2022-10-23T11:37:59.323Z,19776.00
2022-10-23T11:38:59.330Z,19296.00
2022-10-23T11:39:59.391Z,18912.00
2022-10-23T11:40:59.293Z,18528.00
2022-10-23T11:41:59.269Z,18304.00
2022-10-23T11:42:59.329Z,18272.00
2022-10-23T11:43:59.328Z,18240.00
2022-10-23T11:44:59.368Z,19104.00
2022-10-23T11:45:59.283Z,18880.00
2022-10-23T11:46:59.218Z,19264.00
2022-10-23T11:47:59.231Z,20416.00
2022-10-23T11:48:59.295Z,20064.00
2022-10-23T11:49:59.225Z,20480.00
2022-10-23T11:51:01.519Z,21536.00
2022-10-23T11:52:00.172Z,22816.00
2022-10-23T11:53:15.587Z,24224.00
2022-10-23T11:54:00.145Z,25600.00
2022-10-23T11:54:59.158Z,26240.00
2022-10-23T11:55:59.133Z,28128.00
2022-10-23T11:56:59.186Z,32576.00
2022-10-23T11:57:59.124Z,38336.00
2022-10-23T11:58:59.109Z,38368.00
2022-10-23T11:59:59.135Z,41408.00
2022-10-23T12:00:59.152Z,46624.00
2022-10-23T12:01:59.147Z,45376.00
2022-10-23T12:02:59.469Z,44320.00
2022-10-23T12:03:59.043Z,45376.00
2022-10-23T12:04:59.032Z,39936.00
2022-10-23T12:05:59.043Z,37312.00
2022-10-23T12:06:59.017Z,40832.00
2022-10-23T12:07:59.008Z,41600.00
2022-10-23T12:08:59.032Z,40256.00
2022-10-23T12:09:59.028Z,40320.00
2022-10-23T12:10:59.013Z,38720.00
2022-10-23T12:11:58.974Z,38816.00
2022-10-23T12:12:58.943Z,39072.00
2022-10-23T12:13:58.979Z,40352.00
2022-10-23T12:14:58.956Z,39936.00
2022-10-23T12:16:00.914Z,36768.00
2022-10-23T12:16:58.912Z,33664.00
2022-10-23T12:17:58.952Z,31712.00
2022-10-23T12:18:58.880Z,27520.00
2022-10-23T12:19:58.926Z,30464.00
2022-10-23T12:20:58.855Z,37568.00
2022-10-23T12:21:58.882Z,39040.00
2022-10-23T12:22:58.826Z,39040.00
2022-10-23T12:23:58.824Z,37984.00
2022-10-23T12:24:58.843Z,37696.00
2022-10-23T12:25:58.860Z,37440.00
2022-10-23T12:26:58.802Z,36320.00
2022-10-23T12:27:58.813Z,35840.00
2022-10-23T12:28:58.772Z,35520.00
2022-10-23T12:29:58.785Z,33984.00
2022-10-23T12:30:58.754Z,27680.00
2022-10-23T12:31:58.781Z,25792.00
2022-10-23T12:32:58.760Z,27872.00
2022-10-23T12:33:58.757Z,30272.00
2022-10-23T12:34:58.725Z,32704.00
2022-10-23T12:35:58.739Z,33600.00
2022-10-23T12:36:58.691Z,33408.00
2022-10-23T12:37:58.683Z,33088.00
2022-10-23T12:38:58.797Z,33760.00
2022-10-23T12:39:58.753Z,33728.00
2022-10-23T12:40:58.638Z,32640.00
2022-10-23T12:41:58.645Z,31584.00
2022-10-23T12:42:58.636Z,28224.00
2022-10-23T12:43:58.607Z,25504.00
2022-10-23T12:44:58.632Z,22592.00
2022-10-23T12:45:58.679Z,22208.00
2022-10-23T12:46:58.698Z,23488.00
2022-10-23T12:47:58.584Z,16480.00
2022-10-23T12:48:58.568Z,13492.00
2022-10-23T12:49:58.580Z,12860.00
2022-10-23T12:50:58.555Z,13960.00
2022-10-23T12:51:58.532Z,15792.00
2022-10-23T12:52:58.527Z,16084.00
2022-10-23T12:53:58.508Z,17024.00
2022-10-23T12:54:58.515Z,17504.00
2022-10-23T12:56:58.495Z,19520.00
2022-10-23T12:57:58.479Z,23680.00
2022-10-23T12:58:58.470Z,23264.00
2022-10-23T12:59:58.836Z,20960.00
2022-10-23T13:00:58.524Z,19776.00
2022-10-23T13:01:58.560Z,18080.00
2022-10-23T13:02:58.482Z,16832.00
2022-10-23T13:03:58.398Z,15128.00
2022-10-23T13:04:58.424Z,14620.00
2022-10-23T13:05:58.425Z,14824.00
2022-10-23T13:06:58.366Z,14736.00
2022-10-23T13:07:58.421Z,14148.00
2022-10-23T13:09:10.880Z,13144.00
2022-10-23T13:10:10.849Z,12908.00
2022-10-23T13:11:10.845Z,12384.00
2022-10-23T13:12:10.820Z,12228.00
2022-10-23T13:13:10.819Z,13024.00
2022-10-23T13:14:10.833Z,14360.00
2022-10-23T13:15:10.793Z,15348.00
2022-10-23T13:16:10.821Z,14608.00
2022-10-23T13:17:10.870Z,13688.00
2022-10-23T13:18:10.782Z,13736.00
2022-10-23T13:19:10.835Z,14132.00
2022-10-23T13:20:10.737Z,15208.00
2022-10-23T13:21:10.752Z,15760.00
2022-10-23T13:22:10.780Z,17088.00
2022-10-23T13:23:10.795Z,17184.00
2022-10-23T13:24:10.752Z,15660.00
2022-10-23T13:25:10.705Z,13620.00
2022-10-23T13:26:10.678Z,11696.00
2022-10-23T13:27:10.780Z,10608.00
2022-10-23T13:28:10.682Z,10948.00
2022-10-23T13:29:11.143Z,11608.00
2022-10-23T13:30:10.894Z,11224.00
2022-10-23T13:31:10.630Z,11360.00
2022-10-23T13:32:10.619Z,11416.00
2022-10-23T13:33:10.641Z,10000.00
2022-10-23T13:34:10.611Z,9492.00
2022-10-23T13:35:21.358Z,9908.00
2022-10-23T13:36:11.599Z,10804.00
2022-10-23T13:37:10.551Z,12204.00
2022-10-23T13:38:10.541Z,14036.00
2022-10-23T13:39:10.567Z,15040.00
2022-10-23T13:40:10.521Z,15936.00
2022-10-23T13:41:10.523Z,16896.00
2022-10-23T13:42:10.509Z,17056.00
2022-10-23T13:43:10.494Z,16224.00
2022-10-23T13:44:10.488Z,13484.00
2022-10-23T13:45:10.678Z,10736.00
2022-10-23T13:46:10.497Z,8896.00
2022-10-23T13:47:10.463Z,7700.00
2022-10-23T13:48:10.501Z,7324.00
2022-10-23T13:49:10.513Z,7488.00
2022-10-23T13:50:10.437Z,7140.00
2022-10-23T13:51:10.462Z,6984.00
2022-10-23T13:52:10.415Z,7540.00
2022-10-23T13:53:10.387Z,8336.00
2022-10-23T13:54:10.400Z,8972.00
2022-10-23T13:55:10.417Z,10296.00
2022-10-23T13:56:10.366Z,11776.00
2022-10-23T13:57:10.349Z,13116.00
2022-10-23T13:58:10.351Z,13572.00
2022-10-23T13:59:10.404Z,14584.00
2022-10-23T14:00:10.318Z,14944.00
2022-10-23T14:01:10.437Z,12964.00
2022-10-23T14:02:10.437Z,10184.00
2022-10-23T14:03:10.309Z,8256.00
2022-10-23T14:04:10.280Z,7216.00
2022-10-23T14:05:10.325Z,6604.00
2022-10-23T14:06:10.245Z,6372.00
2022-10-23T14:07:10.231Z,6348.00
2022-10-23T14:08:10.225Z,6632.00
2022-10-23T14:09:10.337Z,6880.00
2022-10-23T14:10:10.198Z,7156.00
2022-10-23T14:11:10.221Z,8024.00
2022-10-23T14:12:10.172Z,9532.00
2022-10-23T14:13:10.175Z,10992.00
2022-10-23T14:14:10.169Z,11512.00
2022-10-23T14:15:10.185Z,11316.00
2022-10-23T14:16:10.125Z,11244.00
2022-10-23T14:17:10.156Z,11784.00
2022-10-23T14:18:10.134Z,12448.00
2022-10-23T14:19:10.373Z,12376.00
2022-10-23T14:20:10.095Z,11464.00
2022-10-23T14:21:10.111Z,10900.00
2022-10-23T14:22:10.102Z,10016.00
2022-10-23T14:23:10.135Z,8740.00
2022-10-23T14:24:10.133Z,7472.00
2022-10-23T14:25:10.074Z,6868.00
2022-10-23T14:26:10.024Z,6056.00
2022-10-23T14:27:10.010Z,5404.00
2022-10-23T14:28:10.039Z,4864.00
2022-10-23T14:29:16.262Z,4536.00
2022-10-23T14:30:10.981Z,4424.00
2022-10-23T14:31:09.972Z,4488.00
2022-10-23T14:32:10.061Z,4720.00
2022-10-23T14:33:10.016Z,5112.00
2022-10-23T14:34:10.026Z,5860.00
2022-10-23T14:35:09.951Z,6572.00
2022-10-23T14:36:09.990Z,7364.00
2022-10-23T14:37:09.954Z,7444.00
2022-10-23T14:38:09.903Z,7336.00
2022-10-23T14:39:09.919Z,7212.00
2022-10-23T14:40:09.902Z,7808.00
2022-10-23T14:41:09.879Z,8652.00
2022-10-23T14:42:09.844Z,9092.00
2022-10-23T14:43:09.867Z,8120.00
2022-10-23T14:44:09.901Z,7152.00
2022-10-23T14:45:09.825Z,7044.00
2022-10-23T14:46:09.832Z,7312.00
2022-10-23T14:47:09.840Z,7640.00
2022-10-23T14:48:09.795Z,7280.00
2022-10-23T14:49:09.799Z,7064.00
2022-10-23T14:50:09.781Z,6388.00
2022-10-23T14:51:09.752Z,5976.00
2022-10-23T14:52:09.819Z,5588.00
2022-10-23T14:53:09.733Z,4932.00
2022-10-23T14:54:09.745Z,4616.00
2022-10-23T14:55:09.721Z,4296.00
2022-10-23T14:56:09.720Z,4204.00
2022-10-23T14:57:09.703Z,4404.00
2022-10-23T14:58:09.679Z,4772.00
2022-10-23T14:59:09.688Z,5708.00
2022-10-23T15:00:09.673Z,7056.00
2022-10-23T15:01:09.821Z,7500.00
2022-10-23T15:02:09.690Z,7276.00
2022-10-23T15:03:09.637Z,7352.00
2022-10-23T15:04:09.646Z,6932.00
2022-10-23T15:05:09.608Z,6464.00
2022-10-23T15:06:10.498Z,5892.00
2022-10-23T15:07:09.577Z,5264.00
2022-10-23T15:08:09.654Z,4848.00
2022-10-23T15:09:09.594Z,4448.00
2022-10-23T15:10:09.604Z,4184.00
2022-10-23T15:11:12.553Z,3972.00
2022-10-23T15:12:09.629Z,4052.00
2022-10-23T15:13:09.539Z,4404.00
2022-10-23T15:14:09.547Z,4568.00
2022-10-23T15:15:09.504Z,4504.00
2022-10-23T15:16:09.500Z,4600.00
2022-10-23T15:17:14.583Z,4940.00
2022-10-23T15:18:10.496Z,5196.00
2022-10-23T15:19:12.112Z,4848.00
2022-10-23T15:20:10.448Z,4164.00
2022-10-23T15:21:09.674Z,3796.00
2022-10-23T15:22:09.482Z,3508.00
2022-10-23T15:23:09.454Z,3304.00
2022-10-23T15:24:09.409Z,2944.00
2022-10-23T15:25:10.577Z,2712.00
2022-10-23T15:26:09.468Z,2896.00
2022-10-23T15:28:09.437Z,2956.00
2022-10-23T15:29:09.380Z,2736.00
2022-10-23T15:30:09.395Z,2300.00
2022-10-23T15:31:09.358Z,1904.00
2022-10-23T15:32:09.348Z,1552.00
2022-10-23T15:33:09.359Z,1292.00
2022-10-23T15:34:09.352Z,1076.00
2022-10-23T15:35:09.305Z,940.00
2022-10-23T15:36:09.279Z,884.00
2022-10-23T15:37:09.300Z,804.00
2022-10-23T15:38:09.263Z,748.00
2022-10-23T15:39:09.267Z,716.00
2022-10-23T15:40:09.321Z,676.00
2022-10-23T15:41:09.242Z,696.00
2022-10-23T15:42:09.212Z,684.00
2022-10-23T15:43:12.476Z,624.00
2022-10-23T15:44:09.241Z,600.00
2022-10-23T15:45:09.157Z,624.00
2022-10-23T15:46:09.165Z,580.00
2022-10-23T15:47:09.151Z,568.00
2022-10-23T15:48:09.168Z,560.00
2022-10-23T15:49:09.145Z,520.00
2022-10-23T15:50:09.100Z,512.00
2022-10-23T15:51:09.098Z,520.00
2022-10-23T15:53:09.073Z,468.00
2022-10-23T15:54:09.219Z,484.00
2022-10-23T15:55:09.057Z,560.00
2022-10-23T15:56:09.065Z,632.00
2022-10-23T15:57:09.054Z,652.00
2022-10-23T15:58:09.092Z,628.00
2022-10-23T15:59:09.047Z,588.00
2022-10-23T16:00:09.038Z,560.00
2022-10-23T16:01:09.117Z,524.00
2022-10-23T16:02:09.126Z,520.00
2022-10-23T16:03:08.974Z,600.00
2022-10-23T16:04:08.986Z,652.00
2022-10-23T16:05:08.957Z,624.00
2022-10-23T16:06:08.927Z,588.00
2022-10-23T16:07:08.917Z,532.00
2022-10-23T16:08:08.961Z,460.00
2022-10-23T16:09:08.909Z,368.00
2022-10-23T16:10:08.918Z,272.00
2022-10-23T16:11:08.878Z,220.00
2022-10-23T16:12:08.875Z,196.00
2022-10-23T16:13:08.874Z,160.00
2022-10-23T16:14:08.878Z,144.00
2022-10-23T16:15:08.898Z,128.00
2022-10-23T16:16:08.944Z,100.00
2022-10-23T16:17:08.862Z,80.00
2022-10-23T16:18:08.881Z,76.00
2022-10-23T16:19:08.806Z,72.00
2022-10-23T16:20:08.791Z,64.00
2022-10-23T16:21:08.787Z,52.00
2022-10-23T16:22:08.810Z,44.00
2022-10-23T16:23:08.761Z,48.00
2022-10-23T16:24:08.760Z,48.00
2022-10-23T16:25:08.716Z,44.00
2022-10-23T16:26:08.736Z,40.00
2022-10-23T16:27:08.747Z,36.00
2022-10-23T16:28:08.703Z,32.00
2022-10-23T16:29:08.738Z,24.00
2022-10-23T16:30:08.665Z,24.00
2022-10-23T16:31:08.665Z,24.00
2022-10-23T16:32:08.642Z,24.00
2022-10-23T16:33:08.629Z,20.00
2022-10-23T16:34:08.703Z,16.00
2022-10-23T16:35:11.032Z,12.00
2022-10-23T16:36:08.615Z,12.00
2022-10-23T16:37:08.589Z,8.00
2022-10-23T16:38:08.596Z,8.00
2022-10-23T16:39:08.721Z,8.00
2022-10-23T16:40:08.559Z,8.00
2022-10-23T16:41:08.564Z,4.00
2022-10-23T16:42:08.655Z,4.00
2022-10-23T16:43:08.816Z,4.00
2022-10-23T16:44:08.540Z,4.00
2022-10-23T16:45:08.520Z,4.00
2022-10-23T16:46:08.751Z,0.00
2022-10-23T16:47:08.488Z,4.00
2022-10-23T16:48:08.484Z,0.00
2022-10-23T16:49:08.543Z,0.00
2022-10-23T16:50:08.442Z,0.00
2022-10-23T16:51:08.438Z,0.00
2022-10-23T16:52:08.438Z,0.00
2022-10-23T16:53:08.404Z,0.00
2022-10-23T16:54:08.448Z,0.00
2022-10-23T16:55:08.408Z,0.00
2022-10-23T16:56:08.378Z,0.00
2022-10-23T16:57:08.368Z,0.00
2022-10-23T16:58:08.376Z,0.00
2022-10-23T16:59:08.593Z,0.00
2022-10-23T17:00:08.329Z,0.00
2022-10-23T17:01:08.435Z,0.00
2022-10-23T17:02:08.443Z,0.00
2022-10-23T17:03:08.305Z,0.00
2022-10-23T17:04:08.335Z,0.00
2022-10-23T17:05:08.324Z,0.00
2022-10-23T17:06:08.910Z,0.00
2022-10-23T17:07:08.366Z,0.00
2022-10-23T17:08:08.251Z,0.00
2022-10-23T17:09:08.328Z,0.00
2022-10-23T17:10:08.224Z,0.00
2022-10-23T17:11:08.217Z,0.00
2022-10-23T17:12:08.284Z,0.00
2022-10-23T17:13:08.215Z,0.00
2022-10-23T17:14:08.210Z,0.00
2022-10-23T17:15:08.189Z,0.00
2022-10-23T17:16:08.154Z,0.00
2022-10-23T17:17:08.172Z,0.00
2022-10-23T17:18:08.152Z,0.00
2022-10-23T17:19:20.933Z,0.00
2022-10-23T17:20:09.123Z,0.00
2022-10-23T17:21:08.137Z,0.00
2022-10-23T17:22:08.089Z,0.00
2022-10-23T17:23:08.083Z,0.00
2022-10-23T17:24:08.118Z,0.00
2022-10-23T17:25:08.081Z,0.00
2022-10-23T17:26:08.047Z,0.00
2022-10-23T17:27:08.052Z,0.00
2022-10-23T17:28:08.078Z,0.00
2022-10-23T17:29:08.056Z,0.00
2022-10-23T17:30:12.402Z,0.00
2022-10-23T17:31:08.017Z,0.00
2022-10-23T17:32:08.063Z,0.00
2022-10-23T17:33:07.971Z,0.00
2022-10-23T17:34:07.968Z,0.00
2022-10-23T17:35:08.004Z,0.00
2022-10-23T17:36:07.945Z,0.00
2022-10-23T17:37:07.930Z,0.00
2022-10-23T17:38:07.934Z,0.00
2022-10-23T17:39:07.954Z,0.00
2022-10-23T17:40:07.905Z,0.00
2022-10-23T17:41:07.903Z,0.00
2022-10-23T17:42:07.891Z,0.00
2022-10-23T17:43:07.860Z,0.00
2022-10-23T17:44:08.149Z,0.00
2022-10-23T17:45:07.839Z,0.00
2022-10-23T17:46:07.844Z,0.00
2022-10-23T17:47:07.818Z,0.00
2022-10-23T17:48:07.823Z,0.00
2022-10-23T17:49:07.843Z,0.00
2022-10-23T17:50:07.815Z,0.00
2022-10-23T17:51:07.766Z,0.00
2022-10-23T17:52:07.758Z,0.00
2022-10-23T17:53:07.745Z,0.00
2022-10-23T17:54:07.793Z,0.00
2022-10-23T17:55:07.731Z,0.00
2022-10-23T17:56:07.752Z,0.00
2022-10-23T17:57:07.708Z,0.00
2022-10-23T17:58:07.710Z,0.00
2022-10-23T17:59:07.701Z,0.00
2022-10-23T18:00:07.678Z,0.00
2022-10-23T18:01:07.842Z,0.00
2022-10-23T18:02:07.753Z,0.00
2022-10-23T18:03:07.658Z,0.00
2022-10-23T18:04:07.711Z,0.00
2022-10-23T18:05:07.640Z,0.00
2022-10-23T18:06:07.698Z,0.00
2022-10-23T18:07:07.632Z,0.00
2022-10-23T18:08:07.588Z,0.00
2022-10-23T18:09:07.640Z,0.00
2022-10-23T18:10:07.597Z,0.00
2022-10-23T18:11:07.566Z,0.00
2022-10-23T18:12:07.554Z,0.00
2022-10-23T18:13:07.536Z,0.00
2022-10-23T18:14:07.612Z,0.00
2022-10-23T18:15:07.513Z,0.00
2022-10-23T18:16:07.572Z,0.00
2022-10-23T18:17:07.506Z,0.00
2022-10-23T18:18:07.519Z,0.00
2022-10-23T18:19:07.520Z,0.00
2022-10-23T18:20:07.461Z,0.00
2022-10-23T18:21:07.441Z,0.00
2022-10-23T18:22:07.476Z,0.00
2022-10-23T18:23:07.433Z,0.00
2022-10-23T18:24:07.440Z,0.00
2022-10-23T18:25:07.406Z,0.00
2022-10-23T18:26:07.435Z,0.00
2022-10-23T18:27:07.420Z,0.00
2022-10-23T18:28:07.373Z,0.00
2022-10-23T18:29:07.431Z,0.00
2022-10-23T18:30:07.386Z,0.00
2022-10-23T18:31:07.360Z,0.00
2022-10-23T18:32:07.350Z,0.00
2022-10-23T18:33:07.340Z,0.00
2022-10-23T18:34:07.374Z,0.00
2022-10-23T18:35:07.315Z,0.00
2022-10-23T18:36:07.341Z,0.00
2022-10-23T18:37:07.268Z,0.00
2022-10-23T18:38:07.275Z,0.00
2022-10-23T18:39:07.278Z,0.00
2022-10-23T18:40:07.257Z,0.00
2022-10-23T18:41:07.227Z,0.00
2022-10-23T18:42:07.268Z,0.00
2022-10-23T18:43:14.714Z,0.00
2022-10-23T18:44:08.235Z,0.00
2022-10-23T18:45:07.315Z,0.00
2022-10-23T18:46:07.175Z,0.00
2022-10-23T18:47:07.261Z,0.00
2022-10-23T18:48:07.189Z,0.00
2022-10-23T18:49:07.155Z,0.00
2022-10-23T18:50:07.148Z,0.00
2022-10-23T18:51:07.125Z,0.00
2022-10-23T18:52:07.168Z,0.00
2022-10-23T18:53:07.085Z,0.00
2022-10-23T18:54:07.110Z,0.00
2022-10-23T18:55:07.063Z,0.00
2022-10-23T18:56:07.066Z,0.00
2022-10-23T18:57:07.713Z,0.00
2022-10-23T18:58:07.110Z,0.00
2022-10-23T18:59:07.044Z,0.00
2022-10-23T19:00:07.031Z,0.00
2022-10-23T19:01:07.149Z,0.00
2022-10-23T19:02:07.172Z,0.00
2022-10-23T19:03:06.984Z,0.00
2022-10-23T19:04:07.075Z,0.00
2022-10-23T19:05:06.957Z,0.00
2022-10-23T19:06:06.970Z,0.00
2022-10-23T19:07:06.951Z,0.00
2022-10-23T19:08:07.024Z,0.00
2022-10-23T19:09:07.037Z,0.00
2022-10-23T19:10:06.943Z,0.00
2022-10-23T19:11:06.907Z,0.00
2022-10-23T19:12:07.005Z,0.00
2022-10-23T19:13:06.908Z,0.00
2022-10-23T19:14:06.880Z,0.00
2022-10-23T19:15:06.891Z,0.00
2022-10-23T19:16:06.882Z,0.00
2022-10-23T19:17:06.868Z,0.00
2022-10-23T19:18:06.842Z,0.00
2022-10-23T19:19:06.846Z,0.00
2022-10-23T19:20:06.806Z,0.00
2022-10-23T19:21:06.979Z,0.00
2022-10-23T19:22:06.802Z,0.00
2022-10-23T19:23:06.773Z,0.00
2022-10-23T19:24:06.841Z,0.00
2022-10-23T19:25:06.742Z,0.00
2022-10-23T19:26:06.752Z,0.00
2022-10-23T19:27:06.747Z,0.00
2022-10-23T19:28:06.755Z,0.00
2022-10-23T19:29:06.727Z,0.00
2022-10-23T19:30:06.702Z,0.00
2022-10-23T19:31:06.703Z,0.00
2022-10-23T19:32:06.761Z,0.00
2022-10-23T19:33:06.666Z,0.00
2022-10-23T19:34:06.819Z,0.00
2022-10-23T19:35:06.651Z,0.00
2022-10-23T19:36:11.183Z,0.00
2022-10-23T19:37:07.681Z,0.00
2022-10-23T19:38:06.629Z,0.00
2022-10-23T19:39:06.632Z,0.00
2022-10-23T19:40:06.617Z,0.00
2022-10-23T19:41:06.634Z,0.00
2022-10-23T19:42:06.558Z,0.00
2022-10-23T19:43:06.545Z,0.00
2022-10-23T19:44:06.573Z,0.00
2022-10-23T19:45:06.551Z,0.00
2022-10-23T19:46:09.477Z,0.00
2022-10-23T19:47:07.506Z,0.00
2022-10-23T19:48:06.495Z,0.00
2022-10-23T19:49:06.496Z,0.00
2022-10-23T19:50:06.482Z,0.00
2022-10-23T19:51:06.501Z,0.00
2022-10-23T19:52:06.487Z,0.00
2022-10-23T19:53:06.457Z,0.00
2022-10-23T19:54:06.512Z,0.00
2022-10-23T19:55:06.420Z,0.00
2022-10-23T19:56:06.409Z,0.00
2022-10-23T19:57:06.401Z,0.00
2022-10-23T19:58:06.408Z,0.00
2022-10-23T19:59:06.401Z,0.00
2022-10-23T20:00:06.416Z,0.00
2022-10-23T20:01:06.449Z,0.00
2022-10-23T20:02:06.566Z,0.00
2022-10-23T20:03:06.332Z,0.00
2022-10-23T20:04:06.345Z,0.00
2022-10-23T20:05:06.305Z,0.00
2022-10-23T20:06:06.304Z,0.00
2022-10-23T20:07:06.311Z,0.00
2022-10-23T20:08:06.335Z,0.00
2022-10-23T20:09:06.360Z,0.00
2022-10-23T20:10:06.284Z,0.00
2022-10-23T20:11:06.307Z,0.00
2022-10-23T20:12:06.254Z,0.00
2022-10-23T20:13:19.326Z,0.00
2022-10-23T20:14:07.310Z,0.00
2022-10-23T20:15:06.206Z,0.00
2022-10-23T20:16:06.187Z,0.00
2022-10-23T20:17:06.177Z,0.00
2022-10-23T20:18:06.190Z,0.00
2022-10-23T20:19:06.347Z,0.00
2022-10-23T20:20:06.145Z,0.00
2022-10-23T20:21:06.187Z,0.00
2022-10-23T20:22:06.132Z,0.00
2022-10-23T20:23:06.135Z,0.00
2022-10-23T20:24:06.141Z,0.00
2022-10-23T20:25:06.151Z,0.00
2022-10-23T20:26:06.101Z,0.00
2022-10-23T20:27:06.090Z,0.00
2022-10-23T20:28:06.202Z,0.00
2022-10-23T20:29:06.067Z,0.00
2022-10-23T20:30:06.041Z,0.00
2022-10-23T20:31:06.059Z,0.00
2022-10-23T20:32:06.013Z,0.00
2022-10-23T20:33:06.017Z,0.00
2022-10-23T20:34:06.022Z,0.00
2022-10-23T20:35:05.976Z,0.00
2022-10-23T20:36:05.996Z,0.00
2022-10-23T20:37:06.030Z,0.00
2022-10-23T20:38:05.978Z,0.00
2022-10-23T20:39:05.931Z,0.00
2022-10-23T20:40:05.923Z,0.00
2022-10-23T20:41:05.919Z,0.00
2022-10-23T20:42:05.934Z,0.00
2022-10-23T20:43:05.945Z,0.00
2022-10-23T20:44:06.000Z,0.00
2022-10-23T20:45:05.920Z,0.00
2022-10-23T20:46:06.225Z,0.00
2022-10-23T20:47:05.850Z,0.00
2022-10-23T20:48:05.871Z,0.00
2022-10-23T20:49:05.933Z,0.00
2022-10-23T20:50:05.810Z,0.00
2022-10-23T20:51:05.817Z,0.00
2022-10-23T20:52:05.795Z,0.00
2022-10-23T20:53:06.306Z,0.00
2022-10-23T20:54:05.839Z,0.00
2022-10-23T20:55:05.773Z,0.00
2022-10-23T20:56:05.819Z,0.00
2022-10-23T20:57:05.774Z,0.00
2022-10-23T20:58:05.914Z,0.00
2022-10-23T20:59:05.726Z,0.00
2022-10-23T21:00:05.709Z,0.00
2022-10-23T21:01:05.856Z,0.00
2022-10-23T21:02:05.870Z,0.00
2022-10-23T21:03:05.706Z,0.00
2022-10-23T21:04:05.676Z,0.00
2022-10-23T21:05:05.707Z,0.00
2022-10-23T21:06:05.771Z,0.00
2022-10-23T21:07:10.321Z,0.00
2022-10-23T21:08:06.706Z,0.00
2022-10-23T21:09:05.679Z,0.00
2022-10-23T21:10:05.666Z,0.00
2022-10-23T21:11:05.592Z,0.00
2022-10-23T21:12:05.643Z,0.00
2022-10-23T21:13:05.586Z,0.00
2022-10-23T21:14:05.604Z,0.00
2022-10-23T21:15:05.600Z,0.00
2022-10-23T21:16:05.586Z,0.00
2022-10-23T21:17:05.761Z,0.00
2022-10-23T21:18:14.560Z,0.00
2022-10-23T21:19:06.541Z,0.00
2022-10-23T21:20:05.525Z,0.00
2022-10-23T21:21:05.479Z,0.00
2022-10-23T21:22:05.476Z,0.00
2022-10-23T21:23:05.579Z,0.00
2022-10-23T21:24:05.515Z,0.00
2022-10-23T21:25:05.472Z,0.00
2022-10-23T21:26:07.339Z,0.00
2022-10-23T21:27:05.441Z,0.00
2022-10-23T21:28:05.420Z,0.00
2022-10-23T21:29:20.037Z,0.00
2022-10-23T21:30:06.433Z,0.00
2022-10-23T21:31:05.390Z,0.00
2022-10-23T21:32:05.377Z,0.00
2022-10-23T21:33:05.359Z,0.00
2022-10-23T21:34:05.400Z,0.00
2022-10-23T21:35:05.351Z,0.00
2022-10-23T21:36:13.676Z,0.00
2022-10-23T21:37:14.743Z,0.00
2022-10-23T21:38:06.320Z,0.00
2022-10-23T21:39:05.294Z,0.00
2022-10-23T21:40:05.318Z,0.00
2022-10-23T21:41:05.270Z,0.00
2022-10-23T21:42:05.313Z,0.00
2022-10-23T21:43:07.015Z,0.00
2022-10-23T21:44:05.234Z,0.00
2022-10-23T21:45:05.222Z,0.00
2022-10-23T21:46:06.222Z,0.00
2022-10-23T21:47:05.239Z,0.00
2022-10-23T21:48:05.266Z,0.00
2022-10-23T21:49:05.175Z,0.00
2022-10-23T21:50:05.171Z,0.00
2022-10-23T21:51:05.166Z,0.00
2022-10-23T21:52:05.222Z,0.00
2022-10-23T21:53:05.216Z,0.00
2022-10-23T21:54:05.137Z,0.00
2022-10-23T21:55:05.139Z,0.00
2022-10-23T21:56:05.131Z,0.00
2022-10-23T21:57:05.146Z,0.00
2022-10-23T21:58:05.117Z,0.00
2022-10-23T22:00:05.179Z,0.00
2022-10-23T22:01:05.254Z,0.00
2022-10-23T22:02:05.324Z,0.00
2022-10-23T22:03:05.050Z,0.00
2022-10-23T22:04:05.037Z,0.00
2022-10-23T22:05:05.075Z,0.00
2022-10-23T22:06:05.010Z,0.00
2022-10-23T22:07:05.010Z,0.00
2022-10-23T22:08:05.021Z,0.00
2022-10-23T22:09:05.130Z,0.00
2022-10-23T22:10:05.050Z,0.00
2022-10-23T22:11:04.941Z,0.00
2022-10-23T22:12:04.946Z,0.00
2022-10-23T22:13:04.938Z,0.00
2022-10-23T22:14:04.940Z,0.00
2022-10-23T22:15:04.953Z,0.00
2022-10-23T22:16:04.997Z,0.00
2022-10-23T22:17:04.884Z,0.00
2022-10-23T22:18:04.886Z,0.00
2022-10-23T22:19:04.868Z,0.00
2022-10-23T22:20:04.853Z,0.00
2022-10-23T22:21:04.862Z,0.00
2022-10-23T22:22:04.832Z,0.00
2022-10-23T22:23:04.820Z,0.00
2022-10-23T22:24:04.960Z,0.00
2022-10-23T22:25:04.806Z,0.00
2022-10-23T22:26:04.771Z,0.00
2022-10-23T22:27:04.763Z,0.00
2022-10-23T22:28:04.926Z,0.00
2022-10-23T22:29:04.760Z,0.00
2022-10-23T22:30:04.728Z,0.00
2022-10-23T22:31:04.755Z,0.00
2022-10-23T22:32:04.736Z,0.00
2022-10-23T22:33:04.736Z,0.00
2022-10-23T22:34:13.312Z,0.00
2022-10-23T22:35:05.668Z,0.00
2022-10-23T22:36:04.717Z,0.00
2022-10-23T22:37:04.726Z,0.00
2022-10-23T22:38:04.654Z,0.00
2022-10-23T22:39:04.643Z,0.00
2022-10-23T22:40:04.617Z,0.00
2022-10-23T22:41:04.827Z,0.00
2022-10-23T22:42:04.662Z,0.00
2022-10-23T22:43:04.708Z,0.00
2022-10-23T22:44:04.571Z,0.00
2022-10-23T22:45:04.592Z,0.00
2022-10-23T22:46:04.597Z,0.00
2022-10-23T22:47:04.563Z,0.00
2022-10-23T22:48:04.566Z,0.00
2022-10-23T22:50:04.585Z,0.00
2022-10-23T22:51:06.317Z,0.00
2022-10-23T22:52:04.567Z,0.00
2022-10-23T22:53:04.624Z,0.00
2022-10-23T22:54:04.472Z,0.00
2022-10-23T22:55:04.453Z,0.00
2022-10-23T22:56:04.443Z,0.00
2022-10-23T22:57:04.512Z,0.00
2022-10-23T22:58:04.462Z,0.00
2022-10-23T22:59:04.417Z,0.00
2022-10-23T23:00:04.426Z,0.00
2022-10-23T23:01:04.433Z,0.00
2022-10-23T23:02:04.440Z,0.00
2022-10-23T23:03:04.432Z,0.00
2022-10-23T23:04:19.483Z,0.00
2022-10-23T23:05:05.426Z,0.00
2022-10-23T23:06:04.354Z,0.00
2022-10-23T23:07:04.532Z,0.00
2022-10-23T23:08:04.321Z,0.00
2022-10-23T23:09:04.349Z,0.00
2022-10-23T23:10:04.303Z,0.00
2022-10-23T23:11:04.302Z,0.00
2022-10-23T23:12:04.755Z,0.00
2022-10-23T23:13:04.282Z,0.00
2022-10-23T23:14:04.272Z,0.00
2022-10-23T23:15:04.275Z,0.00
2022-10-23T23:16:04.250Z,0.00
2022-10-23T23:17:04.249Z,0.00
2022-10-23T23:18:04.200Z,0.00
2022-10-23T23:19:04.426Z,0.00